createdAt,value
2023-03-13T00:01:34.756Z,62.49
2023-03-13T00:04:04.156Z,62.15
2023-03-13T00:06:36.023Z,62.82
2023-03-13T00:09:07.443Z,62.53
2023-03-13T00:11:36.898Z,61.74
2023-03-13T00:14:06.772Z,61.86
2023-03-13T00:16:39.807Z,62.44
2023-03-13T00:19:09.620Z,62.45
2023-03-13T00:21:38.316Z,62.69
2023-03-13T00:24:07.502Z,63.15
2023-03-13T00:26:35.632Z,62.97
2023-03-13T00:29:04.212Z,62.71
2023-03-13T00:31:32.918Z,62.79
2023-03-13T00:34:03.894Z,62.62
2023-03-13T00:36:35.217Z,63.20
2023-03-13T00:39:26.691Z,62.90
2023-03-13T00:41:55.057Z,63.42
2023-03-13T00:44:23.783Z,63.44
2023-03-13T00:46:52.674Z,63.56
2023-03-13T00:49:20.896Z,62.96
2023-03-13T00:51:49.042Z,62.96
2023-03-13T00:54:18.066Z,64.37
2023-03-13T00:56:46.323Z,63.93
2023-03-13T00:59:18.142Z,63.73
2023-03-13T01:01:48.208Z,63.19
2023-03-13T01:04:16.972Z,63.70
2023-03-13T01:06:48.704Z,64.52
2023-03-13T01:09:19.464Z,64.83
2023-03-13T01:11:47.728Z,64.33
2023-03-13T01:14:19.615Z,64.51
2023-03-13T01:16:49.542Z,64.61
2023-03-13T01:19:20.012Z,64.36
2023-03-13T01:21:49.895Z,64.18
2023-03-13T01:24:19.382Z,64.19
2023-03-13T01:26:47.575Z,63.61
2023-03-13T01:29:17.864Z,63.41
2023-03-13T01:31:45.888Z,64.02
2023-03-13T01:34:14.152Z,64.03
2023-03-13T01:36:42.296Z,63.92
2023-03-13T01:39:11.530Z,63.82
2023-03-13T01:41:40.565Z,63.44
2023-03-13T01:44:26.608Z,62.56
2023-03-13T01:46:59.147Z,63.39
2023-03-13T01:49:33.745Z,63.87
2023-03-13T01:52:06.812Z,63.22
2023-03-13T01:54:38.240Z,63.46
2023-03-13T01:57:21.404Z,63.77
2023-03-13T01:59:59.292Z,63.91
2023-03-13T02:02:28.532Z,63.80
2023-03-13T02:05:02.073Z,63.21
2023-03-13T02:08:08.898Z,62.98
2023-03-13T02:10:45.560Z,62.63
2023-03-13T02:13:17.556Z,62.77
2023-03-13T02:15:46.877Z,62.90
2023-03-13T02:18:16.575Z,63.19
2023-03-13T02:20:50.052Z,64.11
2023-03-13T02:24:03.718Z,63.61
2023-03-13T02:26:32.564Z,64.13
2023-03-13T02:29:01.031Z,64.43
2023-03-13T02:31:31.021Z,64.70
2023-03-13T02:34:02.108Z,65.13
2023-03-13T02:36:33.618Z,65.30
2023-03-13T02:39:06.580Z,64.61
2023-03-13T02:41:35.887Z,65.34
2023-03-13T02:44:06.075Z,64.98
2023-03-13T02:46:46.253Z,65.09
2023-03-13T02:49:22.670Z,65.58
2023-03-13T02:51:53.936Z,64.78
2023-03-13T02:54:32.195Z,65.17
2023-03-13T02:57:05.625Z,64.83
2023-03-13T02:59:36.313Z,64.80
2023-03-13T03:02:08.080Z,65.33
2023-03-13T03:04:38.350Z,65.93
2023-03-13T03:07:07.233Z,66.33
2023-03-13T03:09:35.671Z,65.45
2023-03-13T03:12:07.992Z,65.93
2023-03-13T03:14:38.811Z,65.42
2023-03-13T03:17:08.321Z,65.89
2023-03-13T03:26:38.574Z,66.42
2023-03-13T03:29:12.070Z,66.37
2023-03-13T03:31:41.891Z,66.51
2023-03-13T03:34:11.005Z,66.94
2023-03-13T03:36:40.761Z,66.97
2023-03-13T03:39:09.514Z,66.69
2023-03-13T03:41:37.586Z,66.81
2023-03-13T03:44:07.026Z,66.95
2023-03-13T03:46:48.921Z,66.93
2023-03-13T03:49:17.363Z,66.50
2023-03-13T03:51:46.147Z,66.52
2023-03-13T03:54:14.430Z,66.73
2023-03-13T03:56:42.642Z,66.77
2023-03-13T03:59:12.184Z,66.20
2023-03-13T04:01:46.679Z,66.49
2023-03-13T04:04:18.229Z,66.42
2023-03-13T04:06:49.844Z,66.17
2023-03-13T04:09:18.442Z,67.12
2023-03-13T04:11:46.571Z,67.42
2023-03-13T04:14:14.953Z,67.14
2023-03-13T04:16:43.362Z,67.61
2023-03-13T04:19:11.633Z,67.34
2023-03-13T04:21:40.072Z,66.73
2023-03-13T04:24:11.980Z,67.30
2023-03-13T04:26:42.335Z,67.81
2023-03-13T04:29:10.646Z,67.66
2023-03-13T04:31:48.681Z,67.81
2023-03-13T04:34:35.987Z,68.09
2023-03-13T04:37:16.064Z,68.11
2023-03-13T04:40:08.105Z,68.58
2023-03-13T04:42:50.918Z,68.32
2023-03-13T04:45:45.238Z,68.52
2023-03-13T04:48:23.180Z,68.56
2023-03-13T04:51:14.526Z,68.72
2023-03-13T04:53:59.169Z,68.69
2023-03-13T04:56:43.667Z,68.65
2023-03-13T04:59:35.709Z,68.37
2023-03-13T05:02:21.852Z,67.77
2023-03-13T05:05:16.054Z,68.18
2023-03-13T05:08:13.409Z,68.30
2023-03-13T05:10:53.940Z,68.48
2023-03-13T05:13:48.160Z,68.60
2023-03-13T05:16:46.662Z,67.86
2023-03-13T05:19:30.779Z,68.04
2023-03-13T05:22:19.610Z,68.19
2023-03-13T05:25:10.824Z,68.23
2023-03-13T05:28:08.497Z,68.30
2023-03-13T05:30:58.181Z,67.12
2023-03-13T05:33:56.563Z,67.08
2023-03-13T05:36:34.838Z,66.69
2023-03-13T05:39:20.501Z,65.46
2023-03-13T05:42:01.302Z,64.31
2023-03-13T05:44:43.787Z,62.83
2023-03-13T05:47:18.795Z,60.25
2023-03-13T05:50:09.607Z,56.79
2023-03-13T05:52:58.615Z,55.11
2023-03-13T05:55:48.084Z,53.18
2023-03-13T05:58:36.877Z,51.03
2023-03-13T06:01:15.211Z,49.38
2023-03-13T06:03:55.636Z,49.57
2023-03-13T06:06:25.908Z,48.92
2023-03-13T06:09:16.331Z,46.92
2023-03-13T06:11:47.515Z,44.95
2023-03-13T06:14:16.519Z,43.25
2023-03-13T06:38:32.719Z,39.00
2023-03-13T06:44:59.913Z,37.39
2023-03-13T06:48:31.605Z,36.14
2023-03-13T06:55:18.071Z,34.38
2023-03-13T06:58:32.634Z,34.49
2023-03-13T07:09:42.989Z,32.74
2023-03-13T07:12:58.376Z,32.73
2023-03-13T07:24:06.987Z,28.71
2023-03-13T07:31:34.273Z,29.45
2023-03-13T07:42:42.325Z,28.12
2023-03-13T07:53:07.231Z,27.96
2023-03-13T07:59:53.444Z,27.80
2023-03-13T08:03:01.912Z,27.47
2023-03-13T08:09:49.036Z,27.20
2023-03-13T08:12:57.728Z,26.34
2023-03-13T08:19:45.840Z,24.63
2023-03-13T08:22:50.819Z,24.83
2023-03-13T08:29:36.961Z,23.02
2023-03-13T08:32:42.541Z,22.85
2023-03-13T08:43:46.789Z,21.66
2023-03-13T08:46:49.358Z,20.96
2023-03-13T08:53:38.050Z,21.57
2023-03-13T08:56:41.424Z,20.71
2023-03-13T09:03:27.700Z,19.68
2023-03-13T09:06:30.620Z,20.02
2023-03-13T09:13:19.701Z,18.94
2023-03-13T09:16:28.673Z,19.59
2023-03-13T09:23:15.107Z,18.69
2023-03-13T09:38:02.656Z,18.83
2023-03-13T09:53:46.670Z,18.75
2023-03-13T10:04:59.120Z,17.19
2023-03-13T10:20:25.785Z,17.17
2023-03-13T10:35:11.054Z,17.31
2023-03-13T10:50:59.169Z,17.98
2023-03-13T11:02:04.285Z,18.30
2023-03-13T11:16:51.108Z,17.36
2023-03-13T11:37:10.068Z,18.70
2023-03-13T12:01:37.924Z,19.74
2023-03-13T12:26:00.702Z,21.50
2023-03-13T13:03:52.853Z,21.78
2023-03-13T13:20:45.066Z,22.92
2023-03-13T13:23:20.820Z,22.85
2023-03-13T13:25:51.090Z,22.85
2023-03-13T13:28:22.092Z,23.03
2023-03-13T13:30:54.606Z,23.44
2023-03-13T13:33:31.263Z,23.50
2023-03-13T13:36:09.030Z,23.77
2023-03-13T13:38:40.595Z,23.65
2023-03-13T13:41:13.201Z,23.90
2023-03-13T13:43:46.700Z,24.00
2023-03-13T13:46:33.212Z,24.22
2023-03-13T13:49:07.821Z,24.15
2023-03-13T13:51:40.639Z,24.33
2023-03-13T13:54:33.100Z,24.60
2023-03-13T13:57:08.333Z,24.67
2023-03-13T13:59:45.806Z,24.73
2023-03-13T14:02:24.090Z,25.13
2023-03-13T14:05:07.853Z,25.40
2023-03-13T14:07:42.076Z,25.39
2023-03-13T14:10:28.607Z,25.68
2023-03-13T14:12:58.958Z,25.89
2023-03-13T14:15:32.093Z,26.10
2023-03-13T14:18:24.598Z,26.22
2023-03-13T14:21:06.039Z,26.47
2023-03-13T14:23:42.893Z,26.43
2023-03-13T14:26:39.084Z,26.63
2023-03-13T14:29:27.044Z,27.28
2023-03-13T14:31:59.606Z,27.57
2023-03-13T14:34:32.923Z,27.37
2023-03-13T14:37:17.332Z,27.94
2023-03-13T14:39:48.816Z,29.17
2023-03-13T14:42:19.133Z,29.87
2023-03-13T14:45:11.486Z,30.08
2023-03-13T14:47:39.969Z,30.27
2023-03-13T14:50:12.762Z,30.19
2023-03-13T14:52:57.656Z,29.76
2023-03-13T14:55:30.075Z,30.38
2023-03-13T14:58:05.753Z,29.79
2023-03-13T15:00:40.615Z,30.19
2023-03-13T15:03:17.168Z,30.41
2023-03-13T15:05:48.015Z,30.85
2023-03-13T15:08:59.554Z,30.68
2023-03-13T15:11:32.375Z,30.64
2023-03-13T15:14:02.196Z,30.45
2023-03-13T15:16:30.927Z,30.64
2023-03-13T15:18:59.462Z,31.10
2023-03-13T15:21:34.010Z,31.35
2023-03-13T15:24:12.646Z,31.41
2023-03-13T15:26:41.007Z,31.52
2023-03-13T15:29:12.027Z,31.36
2023-03-13T15:31:42.752Z,31.45
2023-03-13T15:34:13.711Z,31.45
2023-03-13T15:36:45.872Z,32.25
2023-03-13T15:39:20.671Z,32.12
2023-03-13T15:41:49.061Z,32.34
2023-03-13T15:44:17.317Z,32.37
2023-03-13T15:46:46.391Z,32.76
2023-03-13T15:49:14.637Z,32.91
2023-03-13T15:51:46.435Z,33.22
2023-03-13T15:54:21.187Z,33.63
2023-03-13T15:56:49.628Z,33.63
2023-03-13T15:59:17.906Z,33.87
2023-03-13T16:01:51.750Z,33.91
2023-03-13T16:04:23.017Z,33.84
2023-03-13T16:06:51.448Z,34.31
2023-03-13T16:09:28.015Z,34.67
2023-03-13T16:11:56.349Z,34.92
2023-03-13T16:14:24.464Z,35.01
2023-03-13T16:16:55.963Z,35.34
2023-03-13T16:19:31.032Z,35.91
2023-03-13T16:21:59.534Z,35.62
2023-03-13T16:24:34.371Z,35.78
2023-03-13T16:27:20.062Z,35.92
2023-03-13T16:29:48.604Z,36.30
2023-03-13T16:32:24.880Z,36.70
2023-03-13T16:34:53.220Z,37.69
2023-03-13T16:37:21.588Z,38.89
2023-03-13T16:39:51.635Z,38.48
2023-03-13T16:42:19.840Z,38.40
2023-03-13T16:44:51.294Z,38.21
2023-03-13T16:47:24.440Z,37.57
2023-03-13T16:50:22.297Z,37.04
2023-03-13T16:52:54.705Z,36.71
2023-03-13T16:55:28.660Z,37.28
2023-03-13T16:58:12.795Z,36.89
2023-03-13T17:01:04.664Z,36.97
2023-03-13T17:03:48.526Z,37.37
2023-03-13T17:06:29.377Z,37.28
2023-03-13T17:08:58.466Z,36.89
2023-03-13T17:11:30.377Z,37.50
2023-03-13T17:26:54.517Z,38.88
2023-03-13T17:33:41.009Z,39.25
2023-03-13T17:44:24.029Z,39.66
2023-03-13T17:59:35.231Z,40.22
2023-03-13T18:10:34.591Z,40.80
2023-03-13T18:17:23.560Z,41.76
2023-03-13T18:32:26.876Z,43.30
2023-03-13T18:39:18.798Z,43.76
2023-03-13T18:42:24.521Z,44.46
2023-03-13T18:49:23.689Z,44.40
2023-03-13T18:52:28.362Z,45.03
2023-03-13T18:59:18.443Z,44.83
2023-03-13T19:02:20.510Z,44.75
2023-03-13T19:09:41.752Z,46.49
2023-03-13T19:12:41.777Z,47.13
2023-03-13T19:19:27.781Z,49.89
2023-03-13T19:22:52.390Z,50.70
2023-03-13T19:33:59.127Z,50.82
2023-03-13T19:40:47.803Z,52.37
2023-03-13T19:43:50.777Z,52.31
2023-03-13T19:50:36.979Z,53.59
2023-03-13T19:53:23.477Z,53.24
2023-03-13T20:04:31.342Z,55.40
2023-03-13T20:10:58.394Z,56.13
2023-03-13T20:22:06.315Z,56.59
2023-03-13T20:37:22.867Z,58.68
2023-03-13T20:44:15.020Z,57.59
2023-03-13T20:48:04.305Z,58.31
2023-03-13T20:54:50.502Z,57.73
2023-03-13T20:58:00.148Z,57.58
2023-03-13T21:04:46.016Z,58.18
2023-03-13T21:19:55.379Z,61.00
2023-03-13T21:26:43.035Z,63.48
2023-03-13T21:29:50.999Z,61.70
2023-03-13T21:40:59.953Z,63.20
2023-03-13T22:00:38.726Z,62.26
2023-03-13T22:07:25.017Z,63.94
2023-03-13T22:22:31.234Z,64.72
2023-03-13T22:33:15.756Z,64.37
2023-03-13T22:44:20.106Z,64.41
2023-03-13T22:51:11.916Z,65.13
2023-03-13T23:01:57.350Z,65.90
2023-03-13T23:08:46.128Z,66.75
2023-03-13T23:15:54.672Z,66.21
2023-03-13T23:27:04.166Z,67.92
2023-03-13T23:30:11.121Z,66.63
2023-03-13T23:37:00.153Z,67.06
2023-03-13T23:40:01.217Z,67.24
2023-03-13T23:51:13.211Z,67.24
2023-03-13T23:58:03.400Z,66.94
